Latest Weather Observations for Warburton

IDW60801

Issued at 10:13 am WST Tuesday 22 September 2020 (issued every 10 minutes, with the page automatically refreshed every 10 minutes)

About weather observations | Map of weather stations | Latest weather observations for WA | Other Formats
Station Details ID: 013011 Name: WARBURTON AIRFIELD Lat: -26.13 Lon: 126.58 Height: 459.0 m
Data from the previous 72 hours. | See also: Recent months at Warburton
Date/Time
WST
Temp
°C
App
Temp
°C
Dew
Point
°C
Rel
Hum
%
Delta-T
°C
Wind Press
QNH
hPa
Press
MSL
hPa
Rain since
9am
mm
Dir  Spd
km/h
Gust
km/h
Spd
kts
Gust
kts
22/10:00am 21.4 16.9 -0.6 23 9.9 ESE 13 20 7 11 1022.0 1020.4 0.0
22/09:30am 20.7 15.8 -0.6 24 9.6 SE 15 28 8 15 1022.3 1020.7 0.0
22/09:00am 20.9 16.4 -0.4 24 9.6 ESE 13 24 7 13 1022.4 1020.9 0.0
22/08:30am 19.9 15.1 -0.1 26 9.0 E 15 20 8 11 1022.2 1020.6 0.0
22/08:00am 19.4 13.8 -0.1 27 8.7 ESE 19 24 10 13 1022.1 1020.5 0.0
22/07:30am 18.1 14.1 0.3 30 8.0 S 11 15 6 8 1022.1 1020.5 0.0
22/07:00am 14.3 9.6 -1.7 33 6.6 SSW 13 15 7 8 1021.9 1020.3 0.0
22/06:30am 12.2 8.6 -2.0 37 5.7 SW 7 11 4 6 1021.4 1019.8 0.0
22/06:00am 8.8 6.3 -3.7 41 4.7 CALM 0 0 0 0 1020.8 1019.3 0.0
22/05:30am 7.8 5.2 -4.9 40 4.6 CALM 0 0 0 0 1020.6 1019.1 0.0
22/05:00am 9.2 6.6 -5.1 36 5.2 CALM 0 0 0 0 1020.1 1018.5 0.0
22/04:30am 10.7 7.3 -2.3 40 5.1 SE 6 6 3 3 1019.7 1018.1 0.0
22/04:00am 10.9 6.9 -2.5 39 5.3 SE 9 11 5 6 1019.2 1017.6 0.0
22/03:30am 11.8 7.4 -2.4 37 5.7 SE 11 13 6 7 1018.8 1017.3 0.0
22/03:00am 12.0 7.6 -2.2 37 5.7 ESE 11 13 6 7 1018.5 1016.9 0.0
22/02:30am 10.5 6.4 -3.2 38 5.3 SE 9 11 5 6 1018.6 1017.1 0.0
22/02:00am 10.7 6.5 -3.7 36 5.5 SSE 9 9 5 5 1018.7 1017.2 0.0
22/01:30am 9.6 5.7 -5.1 35 5.4 SSE 7 7 4 4 1018.7 1017.2 0.0
22/01:00am 10.3 6.5 -5.6 32 5.8 SE 6 6 3 3 1018.7 1017.2 0.0
22/12:30am 9.8 7.1 -5.7 33 5.6 CALM 0 0 0 0 1018.8 1017.3 0.0
22/12:00am 10.8 8.1 -5.6 31 6.0 CALM 0 0 0 0 1018.8 1017.3 0.0
 
Date/Time
WST
Temp
°C
App
Temp
°C
Dew
Point
°C
Rel
Hum
%
Delta-T
°C
Wind Press
QNH
hPa
Press
MSL
hPa
Rain since
9am
mm
Dir  Spd
km/h
Gust
km/h
Spd
kts
Gust
kts
21/11:30pm 11.3 8.6 -5.6 30 6.2 CALM 0 0 0 0 1018.9 1017.4 0.0
21/11:00pm 12.2 9.6 -4.8 30 6.4 CALM 0 4 0 2 1018.9 1017.4 0.0
21/10:30pm 13.3 10.7 -4.8 28 6.9 CALM 0 6 0 3 1018.9 1017.4 0.0
21/10:00pm 15.2 11.1 -3.2 28 7.4 S 9 11 5 6 1019.1 1017.5 0.0
21/09:30pm 15.4 11.6 -3.5 27 7.6 SSE 7 9 4 5 1019.3 1017.7 0.0
21/09:00pm 16.8 12.3 -3.3 25 8.2 S 11 15 6 8 1019.2 1017.6 0.0
21/08:30pm 17.7 12.8 -3.1 24 8.7 S 13 17 7 9 1018.9 1017.4 0.0
21/08:00pm 18.4 13.1 -3.7 22 9.1 SSW 15 19 8 10 1018.7 1017.2 0.0
21/07:30pm 18.1 13.8 -4.5 21 9.2 S 9 15 5 8 1018.3 1016.7 0.0
21/07:00pm 18.9 14.2 -5.2 19 9.7 S 11 13 6 7 1018.0 1016.4 0.0
21/06:30pm 19.6 14.8 -6.1 17 10.3 S 11 13 6 7 1017.7 1016.1 0.0
21/06:00pm 20.5 15.5 -7.9 14 11.0 S 11 15 6 8 1017.3 1015.7 0.0
21/05:30pm 21.6 16.2 -9.0 12 11.8 SSW 13 19 7 10 1017.0 1015.4 0.0
21/05:00pm 22.4 16.2 -8.4 12 12.1 SW 17 22 9 12 1016.8 1015.2 0.0
21/04:30pm 22.7 16.6 -8.1 12 12.2 SW 17 30 9 16 1016.5 1014.9 0.0
21/04:00pm 23.1 16.6 -7.8 12 12.3 SW 19 24 10 13 1016.4 1014.8 0.0
21/03:30pm 23.0 17.3 -7.9 12 12.3 SSW 15 26 8 14 1016.3 1014.7 0.0
21/03:00pm 22.6 16.6 -6.2 14 11.8 SW 17 37 9 20 1016.1 1014.5 0.0
21/02:30pm 22.7 16.7 -7.1 13 12.0 WSW 17 26 9 14 1016.1 1014.5 0.0
21/02:00pm 23.0 17.0 -6.9 13 12.1 WSW 17 30 9 16 1016.3 1014.7 0.0
21/01:30pm 22.5 17.4 -5.4 15 11.6 W 13 22 7 12 1016.5 1014.9 0.0
21/01:00pm 22.2 16.2 -6.5 14 11.6 SW 17 32 9 17 1017.0 1015.4 0.0
21/12:30pm 21.3 15.9 -4.7 17 10.9 WSW 15 26 8 14 1017.3 1015.7 0.0
21/12:00pm 20.4 14.7 -4.0 19 10.2 SSW 17 35 9 19 1017.7 1016.1 0.0
21/11:30am 19.9 13.7 -4.4 19 10.1 S 19 30 10 16 1018.0 1016.4 0.0
21/11:00am 19.1 12.5 -3.7 21 9.5 SW 22 39 12 21 1018.5 1016.9 0.0
21/10:30am 19.6 13.8 -1.5 24 9.2 SW 19 30 10 16 1018.8 1017.3 0.0
21/10:00am 19.4 13.1 -1.1 25 9.0 SSW 22 32 12 17 1018.9 1017.4 0.0
21/09:30am 17.9 10.7 -1.9 26 8.5 SSW 26 37 14 20 1019.3 1017.7 0.0
21/09:00am 17.5 10.4 -1.2 28 8.1 SW 26 37 14 20 1019.4 1017.8 0.0
21/08:30am 16.5 9.8 -1.1 30 7.6 SSW 24 33 13 18 1019.5 1017.9 0.0
21/08:00am 15.6 8.5 -1.0 32 7.1 SSW 26 35 14 19 1019.4 1017.8 0.0
21/07:30am 14.6 8.6 -1.5 33 6.7 SSW 20 30 11 16 1019.3 1017.7 0.0
21/07:00am 13.3 6.7 -3.0 32 6.5 SSW 22 32 12 17 1018.8 1017.3 0.0
21/06:30am 12.2 7.1 -4.8 30 6.4 SSW 13 19 7 10 1018.5 1016.9 0.0
21/06:22am 11.5 7.1 -5.4 30 6.3 SSW 9 13 5 7 1018.4 1016.8 0.0
21/06:00am 6.5 2.4 -9.0 32 4.9 SW 6 9 3 5 1018.2 1016.6 0.0
21/05:30am 5.4 2.4 -9.6 33 4.6 CALM 0 0 0 0 1017.9 1016.3 0.0
21/05:00am 5.8 1.7 -9.2 33 4.7 N 6 7 3 4 1017.5 1015.9 0.0
21/04:30am 6.0 2.2 -9.4 32 4.8 NNE 4 7 2 4 1017.3 1015.7 0.0
21/04:00am 6.4 3.4 -9.1 32 4.9 CALM 0 0 0 0 1017.0 1015.4 0.0
21/03:30am 6.4 3.4 -9.9 30 5.1 CALM 0 0 0 0 1016.8 1015.2 0.0
21/03:00am 7.3 4.3 -8.7 31 5.2 CALM 0 0 0 0 1016.6 1015.1 0.0
21/02:30am 9.5 5.5 -7.2 30 5.8 SW 6 7 3 4 1016.6 1015.1 0.0
21/02:00am 9.2 6.3 -7.9 29 5.8 CALM 0 0 0 0 1016.6 1015.1 0.0
21/01:30am 10.4 7.5 -7.8 27 6.3 CALM 0 0 0 0 1016.6 1015.1 0.0
21/01:00am 12.9 8.4 -6.6 25 7.1 SW 9 11 5 6 1016.5 1014.9 0.0
21/12:30am 13.5 9.0 -6.6 24 7.4 SW 9 11 5 6 1016.6 1015.1 0.0
21/12:00am 14.1 9.6 -6.7 23 7.7 SW 9 15 5 8 1016.6 1015.1 0.0
 
Date/Time
WST
Temp
°C
App
Temp
°C
Dew
Point
°C
Rel
Hum
%
Delta-T
°C
Wind Press
QNH
hPa
Press
MSL
hPa
Rain since
9am
mm
Dir  Spd
km/h
Gust
km/h
Spd
kts
Gust
kts
20/11:30pm 14.8 9.6 -6.7 22 8.0 SW 13 17 7 9 1016.6 1015.1 0.0
20/11:00pm 15.0 10.1 -7.1 21 8.2 SW 11 15 6 8 1016.6 1015.1 0.0
20/10:30pm 15.5 11.0 -7.3 20 8.5 SW 9 15 5 8 1016.5 1014.9 0.0
20/10:00pm 16.2 10.9 -7.4 19 8.8 SW 13 19 7 10 1016.4 1014.8 0.0
20/09:30pm 16.5 11.2 -7.2 19 8.9 SW 13 17 7 9 1016.3 1014.7 0.0
20/09:00pm 17.0 11.7 -7.5 18 9.2 SSW 13 19 7 10 1016.1 1014.5 0.0
20/08:30pm 17.5 12.6 -7.0 18 9.4 SW 11 15 6 8 1015.9 1014.3 0.0
20/08:00pm 18.4 13.9 -7.1 17 9.8 SW 9 13 5 7 1015.4 1013.8 0.0
20/07:30pm 19.4 14.9 -7.0 16 10.3 SW 9 13 5 7 1015.0 1013.4 0.0
20/07:00pm 20.1 14.8 -7.3 15 10.7 SW 13 17 7 9 1014.7 1013.0 0.0
20/06:30pm 20.9 15.2 -7.6 14 11.2 SW 15 24 8 13 1014.2 1012.6 0.0
20/06:00pm 21.6 15.4 -5.3 16 11.1 SW 19 26 10 14 1013.7 1012.1 0.0
20/05:30pm 22.3 16.1 -4.7 16 11.4 WSW 19 28 10 15 1013.3 1011.7 0.0
20/05:00pm 23.3 16.2 -4.8 15 11.9 SW 24 32 13 17 1012.9 1011.3 0.0
20/04:30pm 23.9 16.5 -7.2 12 12.7 W 24 32 13 17 1012.5 1010.8 0.0
20/04:00pm 24.4 17.3 -7.9 11 13.1 WSW 22 39 12 21 1012.2 1010.5 0.0
20/03:30pm 24.7 17.7 -7.7 11 13.2 WSW 22 30 12 16 1011.9 1010.3 0.0
20/03:00pm 25.1 17.6 -8.6 10 13.6 WSW 24 39 13 21 1011.6 1010.0 0.0
20/02:30pm 25.1 17.3 -7.4 11 13.4 W 26 39 14 21 1011.7 1010.1 0.0
20/02:00pm 25.3 18.4 -6.1 12 13.3 WSW 22 33 12 18 1011.8 1010.2 0.0
20/01:30pm 25.3 18.3 -3.2 15 12.7 W 24 39 13 21 1011.8 1010.2 0.0
20/01:00pm 25.2 17.8 -7.3 11 13.4 W 24 37 13 20 1012.2 1010.5 0.0
20/12:30pm 25.1 16.9 -7.4 11 13.4 W 28 43 15 23 1012.5 1010.8 0.0
20/12:14pm 24.8 17.1 -2.7 16 12.3 WSW 28 46 15 25 1012.7 1011.0 0.0
20/12:00pm 24.9 17.1 -3.5 15 12.5 WSW 28 44 15 24 1012.7 1011.0 0.0
20/11:30am 25.0 18.2 -1.7 17 12.2 WSW 24 35 13 19 1013.2 1011.6 0.0
20/11:00am 24.0 17.6 3.3 26 10.3 WSW 26 39 14 21 1013.6 1012.0 0.0
20/10:30am 23.7 17.8 4.1 28 9.9 WSW 24 37 13 20 1013.8 1012.2 0.0
20/10:00am 23.3 18.0 5.2 31 9.3 SW 22 35 12 19 1014.1 1012.5 0.0
20/09:30am 22.5 17.2 5.0 32 8.9 SW 22 35 12 19 1014.3 1012.7 0.0
20/09:00am 22.0 16.7 5.0 33 8.6 SW 22 35 12 19 1014.5 1012.8 0.0
20/08:30am 21.3 15.6 4.8 34 8.3 SW 24 33 13 18 1014.6 1012.9 0.0
20/08:00am 21.1 15.0 4.6 34 8.2 SW 26 35 14 19 1014.5 1012.8 0.0
20/07:30am 20.2 13.9 1.6 29 8.7 SSW 24 30 13 16 1014.2 1012.6 0.0
20/07:00am 19.7 14.1 -0.3 26 9.0 SSW 19 28 10 15 1013.8 1012.2 0.0
20/06:30am 18.6 13.9 -1.8 25 8.8 SW 13 22 7 12 1013.2 1011.6 0.0
20/06:00am 16.5 12.4 -3.0 26 8.1 WSW 9 13 5 7 1012.6 1010.9 0.0
20/05:30am 13.5 9.6 -4.2 29 6.9 WNW 7 9 4 5 1011.7 1010.1 0.0
20/05:00am 13.4 9.7 -4.2 29 6.9 NNW 6 7 3 4 1011.2 1009.6 0.0
20/04:30am 15.8 12.0 -3.6 26 7.8 NW 7 7 4 4 1010.7 1009.0 0.0
20/04:00am 16.9 13.2 -3.2 25 8.3 NW 7 9 4 5 1010.4 1008.7 0.0
20/03:30am 17.5 13.4 -3.3 24 8.6 WNW 9 9 5 5 1010.1 1008.4 0.0
20/03:00am 18.2 14.1 -2.7 24 8.8 W 9 13 5 7 1010.0 1008.3 0.0
20/02:30am 19.6 14.8 -2.7 22 9.5 W 13 15 7 8 1010.0 1008.3 0.0
20/02:00am 20.6 15.8 -2.5 21 10.0 W 13 17 7 9 1010.0 1008.3 0.0
20/01:30am 19.3 15.1 -1.2 25 9.0 WNW 11 13 6 7 1009.9 1008.2 0.0
20/01:00am 19.9 16.1 -0.7 25 9.2 WNW 9 13 5 7 1009.9 1008.2 0.0
20/12:30am 20.8 16.2 -1.1 23 9.8 NW 13 15 7 8 1009.6 1008.0 0.0
20/12:00am 21.0 16.0 -0.9 23 9.8 NNW 15 19 8 10 1009.7 1008.1 0.0
 
Date/Time
WST
Temp
°C
App
Temp
°C
Dew
Point
°C
Rel
Hum
%
Delta-T
°C
Wind Press
QNH
hPa
Press
MSL
hPa
Rain since
9am
mm
Dir  Spd
km/h
Gust
km/h
Spd
kts
Gust
kts
19/11:30pm 21.3 16.7 -1.3 22 10.1 NNW 13 17 7 9 1009.5 1007.9 0.0
19/11:00pm 22.3 17.3 -1.1 21 10.6 NW 15 20 8 11 1009.5 1007.9 0.0
19/10:30pm 24.5 18.5 -1.3 18 11.8 NNW 20 28 11 15 1009.0 1007.4 0.0
19/10:00pm 24.8 19.4 -1.1 18 12.0 NNW 17 22 9 12 1009.0 1007.4 0.0
19/09:30pm 22.8 18.2 -1.3 20 10.9 N 13 17 7 9 1009.0 1007.4 0.0
19/09:00pm 23.8 18.7 -1.9 18 11.6 N 15 19 8 10 1009.1 1007.5 0.0
19/08:30pm 23.7 18.6 -2.0 18 11.5 N 15 17 8 9 1009.1 1007.5 0.0
19/08:00pm 24.3 19.9 -2.3 17 12.0 N 11 13 6 7 1009.1 1007.5 0.0
19/07:30pm 26.2 21.4 -2.4 15 13.0 NNW 13 15 7 8 1008.9 1007.2 0.0
19/07:00pm 27.2 22.4 -2.6 14 13.6 NW 13 17 7 9 1008.8 1007.1 0.0
19/06:30pm 28.3 22.7 -2.7 13 14.3 NNW 17 20 9 11 1008.3 1006.6 0.0
19/06:00pm 29.4 23.4 -2.9 12 15.0 NW 19 24 10 13 1008.0 1006.3 0.0
19/05:30pm 30.4 23.0 -3.3 11 15.6 NW 26 32 14 17 1007.7 1006.0 0.0
19/05:00pm 31.0 23.2 -4.1 10 16.1 NNW 28 43 15 23 1007.6 1005.9 0.0
19/04:30pm 31.5 22.4 -3.8 10 16.3 NW 35 50 19 27 1007.7 1006.0 0.0
19/04:00pm 31.5 22.8 -5.2 9 16.6 NW 32 48 17 26 1007.7 1006.0 0.0
19/03:31pm 31.7 23.0 -5.0 9 16.6 NNW 32 50 17 27 1007.7 1006.0 0.0
19/03:30pm 31.9 23.2 -4.9 9 16.7 NNW 32 44 17 24 1007.8 1006.1 0.0
19/03:10pm 31.7 23.2 -3.6 10 16.4 WNW 32 50 17 27 1007.9 1006.2 0.0
19/03:00pm 31.5 22.8 -5.2 9 16.6 NW 32 46 17 25 1007.9 1006.2 0.0
19/02:35pm 31.3 23.5 -3.9 10 16.2 NW 28 50 15 27 1008.2 1006.5 0.0
19/02:30pm 31.1 22.9 -4.1 10 16.1 NW 30 41 16 22 1008.3 1006.6 0.0
19/02:00pm 30.7 22.8 -4.4 10 16.0 WNW 28 43 15 23 1008.7 1007.0 0.0
19/01:30pm 30.0 21.7 -4.9 10 15.6 WNW 30 48 16 26 1009.2 1007.6 0.0
19/01:08pm 30.8 22.7 -3.0 11 15.8 WNW 30 48 16 26 1009.6 1008.0 0.0
19/01:00pm 29.5 20.6 -5.3 10 15.5 NW 33 46 18 25 1010.0 1008.3 0.0
19/12:39pm 30.0 22.2 -3.6 11 15.4 WNW 28 46 15 25 1010.4 1008.7 0.0
19/12:30pm 29.6 22.3 -2.8 12 15.0 WNW 26 41 14 22 1010.6 1008.9 0.0
19/12:00pm 28.6 20.4 -3.6 12 14.6 WNW 30 50 16 27 1011.2 1009.6 0.0
19/11:56am 29.1 21.4 -3.2 12 14.8 WNW 28 50 15 27 1011.2 1009.6 0.0
19/11:30am 27.8 19.7 -3.1 13 14.1 NW 30 44 16 24 1011.9 1010.3 0.0
19/11:16am 27.8 20.1 -3.1 13 14.1 WNW 28 46 15 25 1012.2 1010.5 0.0
19/11:00am 27.0 19.4 -1.8 15 13.3 NW 28 43 15 23 1012.7 1011.0 0.0
19/10:30am 26.9 20.6 -1.0 16 13.1 NNW 22 39 12 21 1013.0 1011.4 0.0

Other formats

Comma delimited format used in spreadsheet applications
http://www.bom.gov.au/fwo/IDW60801/IDW60801.94457.axf

JavaScript Object Notation format (JSON) in row-major order
http://www.bom.gov.au/fwo/IDW60801/IDW60801.94457.json

Data quality

Most of these data are generated automatically and are frequently updated. Quality checks on data are not normally performed. It is possible for incorrect values to appear. Refer to information at About Latest Weather Observations and please check the disclaimer before using these data.